Time,TemperatureF,DewpointF,PressureIn,WindDirection,WindDirectionDegrees,WindSpeedMPH,WindSpeedGustMPH,Humidity,HourlyPrecipIn,Conditions,Clouds,dailyrainin,SoftwareType,DateUTC
2013-08-22 15:53:00,59.5,34.6,29.68,ESE,112,0.0,0.0,39,0.00,,---,0.00,VWS V14.01,2013-08-22 05:53:00,
2013-08-22 16:09:00,63.1,35.8,29.62,SW,225,4.9,4.9,36,0.00,,---,0.00,VWS V14.01,2013-08-22 06:09:00,
2013-08-22 16:10:00,63.1,35.8,29.62,SW,225,4.9,4.9,36,0.00,,---,0.00,VWS V14.01,2013-08-22 06:10:00,
2013-08-22 16:11:00,63.1,35.8,29.62,SW,225,4.9,4.9,36,0.00,,---,0.00,VWS V14.01,2013-08-22 06:11:00,
2013-08-22 16:12:00,63.0,35.6,29.62,SW,225,4.9,4.9,36,0.00,,---,0.00,VWS V14.01,2013-08-22 06:12:00,
2013-08-22 16:13:00,63.0,35.6,29.62,SW,225,4.9,4.9,36,0.00,,---,0.00,VWS V14.01,2013-08-22 06:13:00,
2013-08-22 16:14:00,63.0,35.6,29.62,West,270,4.3,4.9,36,0.00,,---,0.00,VWS V14.01,2013-08-22 06:14:00,
2013-08-22 16:15:00,63.0,35.6,29.62,West,270,6.7,6.7,36,0.00,,---,0.00,VWS V14.01,2013-08-22 06:15:00,
2013-08-22 16:16:00,63.0,35.6,29.62,NW,315,11.2,11.2,36,0.00,,---,0.00,VWS V14.01,2013-08-22 06:16:00,
2013-08-22 16:17:00,63.0,35.6,29.62,NW,315,6.5,11.2,36,0.00,,---,0.00,VWS V14.01,2013-08-22 06:17:00,
2013-08-22 16:18:00,63.0,35.6,29.62,West,270,9.6,9.6,36,0.00,,---,0.00,VWS V14.01,2013-08-22 06:18:00,
2013-08-22 16:19:00,63.0,35.6,29.62,NW,315,9.0,9.6,36,0.00,,---,0.00,VWS V14.01,2013-08-22 06:19:00,
2013-08-22 16:20:00,63.0,35.6,29.62,NW,315,9.0,9.0,36,0.00,,---,0.00,VWS V14.01,2013-08-22 06:20:00,
2013-08-22 16:21:00,63.1,35.8,29.62,NNW,338,6.9,9.0,36,0.00,,---,0.00,VWS V14.01,2013-08-22 06:21:00,
2013-08-22 16:22:00,63.1,35.8,29.62,WNW,292,8.7,8.7,36,0.00,,---,0.00,VWS V14.01,2013-08-22 06:22:00,
2013-08-22 16:23:00,63.1,35.8,29.62,NW,315,5.8,8.7,36,0.00,,---,0.00,VWS V14.01,2013-08-22 06:23:00,
2013-08-22 16:24:00,63.1,35.8,29.62,NW,315,5.8,5.8,36,0.00,,---,0.00,VWS V14.01,2013-08-22 06:24:00,
2013-08-22 16:25:00,63.3,35.9,29.62,WSW,248,6.3,6.3,36,0.00,,---,0.00,VWS V14.01,2013-08-22 06:25:00,
2013-08-22 16:26:00,63.3,35.9,29.62,NW,315,6.0,6.3,36,0.00,,---,0.00,VWS V14.01,2013-08-22 06:26:00,
2013-08-22 16:27:00,63.3,35.9,29.62,West,270,6.3,6.3,36,0.00,,---,0.00,VWS V14.01,2013-08-22 06:27:00,
2013-08-22 16:28:00,63.3,35.9,29.62,WNW,292,6.5,6.5,36,0.00,,---,0.00,VWS V14.01,2013-08-22 06:28:00,
2013-08-22 16:29:00,63.3,35.9,29.62,WNW,292,6.5,6.5,36,0.00,,---,0.00,VWS V14.01,2013-08-22 06:29:00,
2013-08-22 16:30:00,63.3,35.9,29.62,WNW,292,6.5,6.5,36,0.00,,---,0.00,VWS V14.01,2013-08-22 06:30:00,
2013-08-22 16:31:00,63.3,35.9,29.62,NW,315,6.0,6.5,36,0.00,,---,0.00,VWS V14.01,2013-08-22 06:31:00,
2013-08-22 16:32:00,63.1,35.8,29.62,WNW,292,4.3,6.0,36,0.00,,---,0.00,VWS V14.01,2013-08-22 06:32:00,
2013-08-22 16:33:00,63.1,35.8,29.62,NW,315,3.1,4.3,36,0.00,,---,0.00,VWS V14.01,2013-08-22 06:33:00,
2013-08-22 16:34:00,63.1,35.8,29.62,West,270,3.8,3.8,36,0.00,,---,0.00,VWS V14.01,2013-08-22 06:34:00,
2013-08-22 16:35:00,63.0,35.6,29.62,West,270,8.1,8.1,36,0.00,,---,0.00,VWS V14.01,2013-08-22 06:35:00,
2013-08-22 16:36:00,63.0,35.6,29.62,NW,315,5.4,8.1,36,0.00,,---,0.00,VWS V14.01,2013-08-22 06:36:00,
2013-08-22 16:37:00,63.0,35.6,29.62,NW,315,6.5,6.5,36,0.00,,---,0.00,VWS V14.01,2013-08-22 06:37:00,
2013-08-22 16:38:00,63.0,35.6,29.62,NW,315,6.5,6.5,36,0.00,,---,0.00,VWS V14.01,2013-08-22 06:38:00,
2013-08-22 16:39:00,63.0,35.6,29.62,NW,315,6.5,6.5,36,0.00,,---,0.00,VWS V14.01,2013-08-22 06:39:00,
2013-08-22 16:40:00,62.8,35.5,29.62,NW,315,6.5,6.5,36,0.00,,---,0.00,VWS V14.01,2013-08-22 06:40:00,
2013-08-22 16:41:00,62.8,35.5,29.62,West,270,5.6,6.5,36,0.00,,---,0.00,VWS V14.01,2013-08-22 06:41:00,
2013-08-22 16:42:00,62.8,35.5,29.62,West,270,5.6,5.6,36,0.00,,---,0.00,VWS V14.01,2013-08-22 06:42:00,
2013-08-22 16:43:00,62.8,35.5,29.62,West,270,5.6,5.6,36,0.00,,---,0.00,VWS V14.01,2013-08-22 06:43:00,
2013-08-22 16:44:00,62.8,35.5,29.62,West,270,3.4,5.6,36,0.00,,---,0.00,VWS V14.01,2013-08-22 06:44:00,
2013-08-22 16:45:00,62.8,35.5,29.62,WNW,292,4.9,4.9,36,0.00,,---,0.00,VWS V14.01,2013-08-22 06:45:00,
2013-08-22 16:46:00,62.8,35.5,29.62,WNW,292,6.3,6.3,36,0.00,,---,0.00,VWS V14.01,2013-08-22 06:46:00,
2013-08-22 16:47:00,62.8,35.5,29.62,WNW,292,6.3,6.3,36,0.00,,---,0.00,VWS V14.01,2013-08-22 06:47:00,
2013-08-22 16:48:00,62.6,35.3,29.62,WNW,292,6.3,6.3,36,0.00,,---,0.00,VWS V14.01,2013-08-22 06:48:00,
2013-08-22 16:49:00,62.6,35.3,29.62,NW,315,5.8,6.3,36,0.00,,---,0.00,VWS V14.01,2013-08-22 06:49:00,
2013-08-22 16:50:00,62.6,35.3,29.62,West,270,5.6,5.8,36,0.00,,---,0.00,VWS V14.01,2013-08-22 06:50:00,
2013-08-22 16:51:00,62.6,35.3,29.62,West,270,5.6,5.6,36,0.00,,---,0.00,VWS V14.01,2013-08-22 06:51:00,
2013-08-22 16:52:00,62.6,35.3,29.62,West,270,6.0,6.0,36,0.00,,---,0.00,VWS V14.01,2013-08-22 06:52:00,
2013-08-22 16:53:00,62.4,35.1,29.62,WNW,292,10.1,10.1,36,0.00,,---,0.00,VWS V14.01,2013-08-22 06:53:00,
2013-08-22 16:54:00,62.4,35.1,29.62,NNW,338,4.9,10.1,36,0.00,,---,0.00,VWS V14.01,2013-08-22 06:54:00,
2013-08-22 16:55:00,62.4,35.1,29.62,NNW,338,4.9,4.9,36,0.00,,---,0.00,VWS V14.01,2013-08-22 06:55:00,
2013-08-22 16:56:00,62.2,35.0,29.62,NW,315,3.8,4.9,36,0.00,,---,0.00,VWS V14.01,2013-08-22 06:56:00,
2013-08-22 16:57:00,62.2,35.0,29.62,NW,315,3.6,3.8,36,0.00,,---,0.00,VWS V14.01,2013-08-22 06:57:00,
2013-08-22 16:58:00,62.2,35.0,29.62,West,270,6.5,6.5,36,0.00,,---,0.00,VWS V14.01,2013-08-22 06:58:00,
2013-08-22 16:59:00,62.2,35.0,29.62,NW,315,4.3,6.5,36,0.00,,---,0.00,VWS V14.01,2013-08-22 06:59:00,
2013-08-22 17:00:00,62.1,34.8,29.62,West,270,10.7,10.7,36,0.00,,---,0.00,VWS V14.01,2013-08-22 07:00:00,
2013-08-22 17:01:00,62.1,34.8,29.62,North,0,6.5,10.7,36,0.00,,---,0.00,VWS V14.01,2013-08-22 07:01:00,
2013-08-22 17:02:00,61.9,34.7,29.62,West,270,8.5,8.5,36,0.00,,---,0.00,VWS V14.01,2013-08-22 07:02:00,
2013-08-22 17:03:00,61.7,34.5,29.62,West,270,6.3,8.5,36,0.00,,---,0.00,VWS V14.01,2013-08-22 07:03:00,
2013-08-22 17:04:00,61.7,34.5,29.62,NW,315,3.1,6.3,36,0.00,,---,0.00,VWS V14.01,2013-08-22 07:04:00,
2013-08-22 17:05:00,61.7,34.5,29.62,NW,315,6.3,6.3,36,0.00,,---,0.00,VWS V14.01,2013-08-22 07:05:00,
2013-08-22 17:06:00,61.7,34.5,29.62,NW,315,10.1,10.1,36,0.00,,---,0.00,VWS V14.01,2013-08-22 07:06:00,
2013-08-22 17:07:00,61.5,34.3,29.62,NW,315,10.1,10.1,36,0.00,,---,0.00,VWS V14.01,2013-08-22 07:07:00,
2013-08-22 17:08:00,61.5,34.3,29.62,NW,315,10.1,10.1,36,0.00,,---,0.00,VWS V14.01,2013-08-22 07:08:00,
2013-08-22 17:09:00,61.3,34.2,29.62,NW,315,5.6,10.1,36,0.00,,---,0.00,VWS V14.01,2013-08-22 07:09:00,
2013-08-22 17:10:00,61.3,34.2,29.62,NW,315,6.5,6.5,36,0.00,,---,0.00,VWS V14.01,2013-08-22 07:10:00,
2013-08-22 17:11:00,61.3,34.2,29.62,WNW,292,8.1,8.1,36,0.00,,---,0.00,VWS V14.01,2013-08-22 07:11:00,
2013-08-22 17:12:00,61.3,34.2,29.62,WNW,292,10.3,10.3,36,0.00,,---,0.00,VWS V14.01,2013-08-22 07:12:00,
2013-08-22 17:13:00,61.3,34.2,29.62,WNW,292,6.0,10.3,36,0.00,,---,0.00,VWS V14.01,2013-08-22 07:13:00,
2013-08-22 17:14:00,61.3,34.2,29.62,WNW,292,6.0,6.0,36,0.00,,---,0.00,VWS V14.01,2013-08-22 07:14:00,
2013-08-22 17:15:00,61.3,34.2,29.62,WNW,292,6.0,6.0,36,0.00,,---,0.00,VWS V14.01,2013-08-22 07:15:00,
2013-08-22 17:16:00,61.2,34.0,29.62,West,270,6.3,6.3,36,0.00,,---,0.00,VWS V14.01,2013-08-22 07:16:00,
2013-08-22 17:17:00,61.2,34.0,29.62,NNW,338,3.4,6.3,36,0.00,,---,0.00,VWS V14.01,2013-08-22 07:17:00,
2013-08-22 17:18:00,61.2,34.0,29.62,NNW,338,3.4,3.4,36,0.00,,---,0.00,VWS V14.01,2013-08-22 07:18:00,
2013-08-22 17:19:00,61.0,33.9,29.62,West,270,10.3,10.3,36,0.00,,---,0.00,VWS V14.01,2013-08-22 07:19:00,
2013-08-22 17:20:00,61.0,33.9,29.62,NW,315,6.5,10.3,36,0.00,,---,0.00,VWS V14.01,2013-08-22 07:20:00,
2013-08-22 17:21:00,61.0,33.9,29.62,NW,315,6.5,6.5,36,0.00,,---,0.00,VWS V14.01,2013-08-22 07:21:00,
2013-08-22 17:22:00,61.0,33.9,29.62,NW,315,10.1,10.1,36,0.00,,---,0.00,VWS V14.01,2013-08-22 07:22:00,
2013-08-22 17:23:00,61.0,33.9,29.62,NW,315,7.4,10.1,36,0.00,,---,0.00,VWS V14.01,2013-08-22 07:23:00,
2013-08-22 17:24:00,61.0,33.9,29.62,NW,315,7.4,7.4,36,0.00,,---,0.00,VWS V14.01,2013-08-22 07:24:00,
2013-08-22 17:25:00,61.0,33.9,29.62,NW,315,7.4,7.4,36,0.00,,---,0.00,VWS V14.01,2013-08-22 07:25:00,
2013-08-22 17:26:00,60.8,33.7,29.62,WNW,292,5.8,7.4,36,0.00,,---,0.00,VWS V14.01,2013-08-22 07:26:00,
2013-08-22 17:27:00,60.8,33.7,29.62,West,270,6.0,6.0,36,0.00,,---,0.00,VWS V14.01,2013-08-22 07:27:00,
2013-08-22 17:28:00,60.8,33.7,29.62,West,270,6.0,6.0,36,0.00,,---,0.00,VWS V14.01,2013-08-22 07:28:00,
2013-08-22 17:29:00,60.6,34.2,29.62,North,0,4.9,6.0,37,0.00,,---,0.00,VWS V14.01,2013-08-22 07:29:00,
2013-08-22 17:30:00,60.6,34.2,29.62,North,0,4.9,4.9,37,0.00,,---,0.00,VWS V14.01,2013-08-22 07:30:00,
2013-08-22 17:31:00,60.6,34.2,29.62,NW,315,5.8,6.5,37,0.00,,---,0.00,VWS V14.01,2013-08-22 07:31:00,
2013-08-22 17:32:00,60.6,34.2,29.62,NW,315,5.8,5.8,37,0.00,,---,0.00,VWS V14.01,2013-08-22 07:32:00,
2013-08-22 17:33:00,60.6,34.2,29.62,WSW,248,5.6,5.8,37,0.00,,---,0.00,VWS V14.01,2013-08-22 07:33:00,
2013-08-22 17:34:00,60.6,34.2,29.62,NNW,338,8.5,8.5,37,0.00,,---,0.00,VWS V14.01,2013-08-22 07:34:00,
2013-08-22 17:35:00,60.6,34.2,29.62,NNW,338,8.5,8.5,37,0.00,,---,0.00,VWS V14.01,2013-08-22 07:35:00,
2013-08-22 17:36:00,60.6,34.2,29.62,NW,315,6.0,8.5,37,0.00,,---,0.00,VWS V14.01,2013-08-22 07:36:00,
2013-08-22 17:37:00,60.6,34.2,29.62,WNW,292,10.5,10.5,37,0.00,,---,0.00,VWS V14.01,2013-08-22 07:37:00,
2013-08-22 17:38:00,60.6,34.2,29.62,WNW,292,10.5,10.5,37,0.00,,---,0.00,VWS V14.01,2013-08-22 07:38:00,
2013-08-22 17:40:00,60.3,33.9,29.62,NW,315,3.4,12.8,37,0.00,,---,0.00,VWS V14.01,2013-08-22 07:40:00,
2013-08-22 17:41:00,60.1,33.8,29.62,West,270,5.8,5.8,37,0.00,,---,0.00,VWS V14.01,2013-08-22 07:41:00,
2013-08-22 17:42:00,60.1,33.8,29.62,West,270,5.8,5.8,37,0.00,,---,0.00,VWS V14.01,2013-08-22 07:42:00,
2013-08-22 17:43:00,60.1,33.8,29.62,West,270,5.8,5.8,37,0.00,,---,0.00,VWS V14.01,2013-08-22 07:43:00,
2013-08-22 17:44:00,60.1,33.8,29.62,WSW,248,5.4,5.8,37,0.00,,---,0.00,VWS V14.01,2013-08-22 07:44:00,
2013-08-22 17:45:00,60.1,33.8,29.62,WNW,292,5.8,5.8,37,0.00,,---,0.00,VWS V14.01,2013-08-22 07:45:00,
2013-08-22 17:46:00,60.1,33.8,29.62,NNW,338,4.3,5.8,37,0.00,,---,0.00,VWS V14.01,2013-08-22 07:46:00,
2013-08-22 17:47:00,60.1,33.8,29.62,NNW,338,4.3,4.3,37,0.00,,---,0.00,VWS V14.01,2013-08-22 07:47:00,
2013-08-22 17:48:00,60.1,33.8,29.62,WNW,292,4.3,4.3,37,0.00,,---,0.00,VWS V14.01,2013-08-22 07:48:00,
2013-08-22 17:49:00,59.9,33.6,29.62,North,0,7.2,7.2,37,0.00,,---,0.00,VWS V14.01,2013-08-22 07:49:00,
2013-08-22 17:50:00,59.9,33.6,29.62,West,270,6.3,7.2,37,0.00,,---,0.00,VWS V14.01,2013-08-22 07:50:00,
2013-08-22 17:51:00,59.9,33.6,29.62,West,270,6.3,6.3,37,0.00,,---,0.00,VWS V14.01,2013-08-22 07:51:00,
2013-08-22 17:52:00,59.9,33.6,29.62,West,270,6.3,6.3,37,0.00,,---,0.00,VWS V14.01,2013-08-22 07:52:00,
2013-08-22 17:53:00,59.9,33.6,29.62,NW,315,6.3,6.3,37,0.00,,---,0.00,VWS V14.01,2013-08-22 07:53:00,
2013-08-22 17:54:00,59.9,33.6,29.62,NW,315,6.3,6.3,37,0.00,,---,0.00,VWS V14.01,2013-08-22 07:54:00,
2013-08-22 17:55:00,59.9,33.6,29.62,NNW,338,5.4,6.3,37,0.00,,---,0.00,VWS V14.01,2013-08-22 07:55:00,
2013-08-22 17:56:00,59.9,33.6,29.62,NNW,338,5.4,5.4,37,0.00,,---,0.00,VWS V14.01,2013-08-22 07:56:00,
2013-08-22 17:57:00,59.7,33.4,29.65,West,270,4.9,5.4,37,0.00,,---,0.00,VWS V14.01,2013-08-22 07:57:00,
2013-08-22 17:58:00,59.7,33.4,29.65,NW,315,4.3,4.9,37,0.00,,---,0.00,VWS V14.01,2013-08-22 07:58:00,
2013-08-22 17:59:00,59.7,33.4,29.65,NW,315,5.6,5.6,37,0.00,,---,0.00,VWS V14.01,2013-08-22 07:59:00,
2013-08-22 18:00:00,59.7,33.4,29.65,WNW,292,2.0,5.6,37,0.00,,---,0.00,VWS V14.01,2013-08-22 08:00:00,
2013-08-22 18:01:00,59.7,33.4,29.65,WNW,292,2.0,2.0,37,0.00,,---,0.00,VWS V14.01,2013-08-22 08:01:00,
2013-08-22 18:02:00,59.7,33.4,29.65,NW,315,6.3,6.3,37,0.00,,---,0.00,VWS V14.01,2013-08-22 08:02:00,
2013-08-22 18:03:00,59.7,33.4,29.65,West,270,4.5,6.3,37,0.00,,---,0.00,VWS V14.01,2013-08-22 08:03:00,
2013-08-22 18:04:00,59.7,33.4,29.65,NW,315,3.1,4.5,37,0.00,,---,0.00,VWS V14.01,2013-08-22 08:04:00,
2013-08-22 18:05:00,59.7,33.4,29.65,WSW,248,4.9,4.9,37,0.00,,---,0.00,VWS V14.01,2013-08-22 08:05:00,
2013-08-22 18:06:00,59.7,33.4,29.65,WSW,248,4.3,4.9,37,0.00,,---,0.00,VWS V14.01,2013-08-22 08:06:00,
2013-08-22 18:07:00,59.7,33.4,29.65,WNW,292,4.9,4.9,37,0.00,,---,0.00,VWS V14.01,2013-08-22 08:07:00,
2013-08-22 18:08:00,59.5,33.3,29.65,WNW,292,5.8,5.8,37,0.00,,---,0.00,VWS V14.01,2013-08-22 08:08:00,
2013-08-22 18:09:00,59.5,33.3,29.65,NNW,338,5.8,5.8,37,0.00,,---,0.00,VWS V14.01,2013-08-22 08:09:00,
2013-08-22 18:10:00,59.5,33.3,29.65,NNW,338,4.0,5.8,37,0.00,,---,0.00,VWS V14.01,2013-08-22 08:10:00,
2013-08-22 18:11:00,59.5,33.3,29.65,WNW,292,5.6,5.6,37,0.00,,---,0.00,VWS V14.01,2013-08-22 08:11:00,
2013-08-22 18:12:00,59.5,33.3,29.65,WNW,292,5.6,5.6,37,0.00,,---,0.00,VWS V14.01,2013-08-22 08:12:00,
2013-08-22 18:13:00,59.5,33.3,29.65,WNW,292,3.8,5.8,37,0.00,,---,0.00,VWS V14.01,2013-08-22 08:13:00,
2013-08-22 18:14:00,59.5,33.3,29.65,NW,315,6.3,6.3,37,0.00,,---,0.00,VWS V14.01,2013-08-22 08:14:00,
2013-08-22 18:15:00,59.5,33.3,29.65,WNW,292,3.1,6.3,37,0.00,,---,0.00,VWS V14.01,2013-08-22 08:15:00,
2013-08-22 18:16:00,59.5,33.3,29.65,NNW,338,4.9,4.9,37,0.00,,---,0.00,VWS V14.01,2013-08-22 08:16:00,
2013-08-22 18:17:00,59.4,33.1,29.65,NNW,338,5.6,5.6,37,0.00,,---,0.00,VWS V14.01,2013-08-22 08:17:00,
2013-08-22 18:18:00,59.4,33.1,29.65,WNW,292,3.6,5.6,37,0.00,,---,0.00,VWS V14.01,2013-08-22 08:18:00,
2013-08-22 18:19:00,59.4,33.1,29.65,WNW,292,3.6,3.6,37,0.00,,---,0.00,VWS V14.01,2013-08-22 08:19:00,
2013-08-22 18:20:00,59.4,33.1,29.65,NW,315,8.7,8.7,37,0.00,,---,0.00,VWS V14.01,2013-08-22 08:20:00,
2013-08-22 18:21:00,59.4,33.1,29.65,NW,315,8.7,8.7,37,0.00,,---,0.00,VWS V14.01,2013-08-22 08:21:00,
2013-08-22 18:22:00,59.4,33.1,29.65,WSW,248,3.8,8.7,37,0.00,,---,0.00,VWS V14.01,2013-08-22 08:22:00,
2013-08-22 18:23:00,59.4,33.1,29.65,NW,315,2.7,3.8,37,0.00,,---,0.00,VWS V14.01,2013-08-22 08:23:00,
2013-08-22 18:24:00,59.4,33.1,29.65,NW,315,6.3,6.3,37,0.00,,---,0.00,VWS V14.01,2013-08-22 08:24:00,
2013-08-22 18:25:00,59.4,33.1,29.65,NW,315,7.6,7.6,37,0.00,,---,0.00,VWS V14.01,2013-08-22 08:25:00,
2013-08-22 18:26:00,59.2,33.0,29.65,NW,315,7.4,7.6,37,0.00,,---,0.00,VWS V14.01,2013-08-22 08:26:00,
2013-08-22 18:27:00,59.2,33.0,29.65,WNW,292,5.4,7.4,37,0.00,,---,0.00,VWS V14.01,2013-08-22 08:27:00,
2013-08-22 18:28:00,59.2,33.0,29.65,WNW,292,3.4,5.4,37,0.00,,---,0.00,VWS V14.01,2013-08-22 08:28:00,
2013-08-22 18:29:00,59.2,33.0,29.65,WNW,292,3.4,3.4,37,0.00,,---,0.00,VWS V14.01,2013-08-22 08:29:00,
2013-08-22 18:30:00,59.2,33.0,29.65,NW,315,5.6,5.6,37,0.00,,---,0.00,VWS V14.01,2013-08-22 08:30:00,
2013-08-22 18:31:00,59.2,33.0,29.65,WNW,292,5.6,5.6,37,0.00,,---,0.00,VWS V14.01,2013-08-22 08:31:00,
2013-08-22 18:32:00,59.2,33.0,29.65,West,270,7.6,7.6,37,0.00,,---,0.00,VWS V14.01,2013-08-22 08:32:00,
2013-08-22 18:33:00,59.2,33.0,29.65,WNW,292,5.6,7.6,37,0.00,,---,0.00,VWS V14.01,2013-08-22 08:33:00,
2013-08-22 18:34:00,59.2,33.0,29.65,West,270,2.7,5.6,37,0.00,,---,0.00,VWS V14.01,2013-08-22 08:34:00,
2013-08-22 18:35:00,59.2,33.0,29.65,NW,315,2.9,2.9,37,0.00,,---,0.00,VWS V14.01,2013-08-22 08:35:00,
2013-08-22 18:36:00,59.0,32.8,29.65,NNW,338,5.6,5.6,37,0.00,,---,0.00,VWS V14.01,2013-08-22 08:36:00,
2013-08-22 18:37:00,59.0,32.8,29.65,West,270,6.0,6.0,37,0.00,,---,0.00,VWS V14.01,2013-08-22 08:37:00,
2013-08-22 18:38:00,59.0,32.8,29.65,West,270,6.0,6.0,37,0.00,,---,0.00,VWS V14.01,2013-08-22 08:38:00,
2013-08-22 18:39:00,59.0,32.8,29.65,SW,225,3.8,6.0,37,0.00,,---,0.00,VWS V14.01,2013-08-22 08:39:00,
2013-08-22 18:40:00,59.0,32.8,29.65,NW,315,4.7,4.7,37,0.00,,---,0.00,VWS V14.01,2013-08-22 08:40:00,
2013-08-22 18:41:00,59.0,32.8,29.65,NW,315,2.9,4.7,37,0.00,,---,0.00,VWS V14.01,2013-08-22 08:41:00,
2013-08-22 18:42:00,59.0,32.8,29.65,West,270,8.7,10.1,37,0.00,,---,0.00,VWS V14.01,2013-08-22 08:42:00,
2013-08-22 18:43:00,59.0,32.8,29.65,NW,315,6.3,8.7,37,0.00,,---,0.00,VWS V14.01,2013-08-22 08:43:00,
2013-08-22 18:44:00,59.0,32.8,29.65,NNW,338,5.6,6.3,37,0.00,,---,0.00,VWS V14.01,2013-08-22 08:44:00,
2013-08-22 18:45:00,59.0,32.8,29.65,West,270,4.0,5.6,37,0.00,,---,0.00,VWS V14.01,2013-08-22 08:45:00,
2013-08-22 18:46:00,59.0,32.8,29.65,WNW,292,5.4,5.4,37,0.00,,---,0.00,VWS V14.01,2013-08-22 08:46:00,
2013-08-22 18:47:00,59.0,32.8,29.65,NW,315,12.3,12.3,37,0.00,,---,0.00,VWS V14.01,2013-08-22 08:47:00,
2013-08-22 18:48:00,59.0,32.8,29.65,NW,315,5.8,12.3,37,0.00,,---,0.00,VWS V14.01,2013-08-22 08:48:00,
2013-08-22 18:49:00,59.0,32.8,29.65,WNW,292,8.7,8.7,37,0.00,,---,0.00,VWS V14.01,2013-08-22 08:49:00,
2013-08-22 18:50:00,59.0,32.8,29.65,WNW,292,5.4,8.7,37,0.00,,---,0.00,VWS V14.01,2013-08-22 08:50:00,
2013-08-22 18:52:00,59.0,32.8,29.65,WNW,292,8.5,9.2,37,0.00,,---,0.00,VWS V14.01,2013-08-22 08:52:00,
2013-08-22 18:53:00,59.0,32.8,29.65,WNW,292,6.3,8.5,37,0.00,,---,0.00,VWS V14.01,2013-08-22 08:53:00,
2013-08-22 18:54:00,59.0,32.8,29.65,NW,315,9.6,9.6,37,0.00,,---,0.00,VWS V14.01,2013-08-22 08:54:00,
2013-08-22 18:55:00,59.0,32.8,29.65,West,270,6.3,9.6,37,0.00,,---,0.00,VWS V14.01,2013-08-22 08:55:00,
2013-08-22 18:56:00,59.0,32.8,29.65,West,270,6.7,6.7,37,0.00,,---,0.00,VWS V14.01,2013-08-22 08:56:00,
2013-08-22 18:57:00,59.0,32.8,29.65,NW,315,7.6,7.6,37,0.00,,---,0.00,VWS V14.01,2013-08-22 08:57:00,
2013-08-22 18:58:00,59.0,32.8,29.65,WSW,248,5.4,7.6,37,0.00,,---,0.00,VWS V14.01,2013-08-22 08:58:00,
2013-08-22 18:59:00,59.0,32.8,29.65,NW,315,5.4,5.4,37,0.00,,---,0.00,VWS V14.01,2013-08-22 08:59:00,
2013-08-22 19:00:00,59.0,32.8,29.65,West,270,9.6,9.6,37,0.00,,---,0.00,VWS V14.01,2013-08-22 09:00:00,
2013-08-22 19:01:00,59.0,32.8,29.65,West,270,5.8,9.6,37,0.00,,---,0.00,VWS V14.01,2013-08-22 09:01:00,
2013-08-22 19:02:00,59.0,32.8,29.65,WSW,248,4.3,5.8,37,0.00,,---,0.00,VWS V14.01,2013-08-22 09:02:00,
2013-08-22 19:03:00,59.0,32.8,29.65,WNW,292,7.6,7.6,37,0.00,,---,0.00,VWS V14.01,2013-08-22 09:03:00,
2013-08-22 19:04:00,59.0,32.8,29.65,NW,315,6.0,7.6,37,0.00,,---,0.00,VWS V14.01,2013-08-22 09:04:00,
2013-08-22 19:05:00,59.0,32.8,29.65,WSW,248,6.5,6.5,37,0.00,,---,0.00,VWS V14.01,2013-08-22 09:05:00,
2013-08-22 19:06:00,59.0,32.8,29.65,West,270,4.0,6.5,37,0.00,,---,0.00,VWS V14.01,2013-08-22 09:06:00,
2013-08-22 19:07:00,59.0,32.8,29.65,WNW,292,9.8,9.8,37,0.00,,---,0.00,VWS V14.01,2013-08-22 09:07:00,
2013-08-22 19:08:00,59.0,32.8,29.65,WNW,292,9.8,9.8,37,0.00,,---,0.00,VWS V14.01,2013-08-22 09:08:00,
2013-08-22 19:09:00,59.0,32.8,29.65,WNW,292,9.8,9.8,37,0.00,,---,0.00,VWS V14.01,2013-08-22 09:09:00,
2013-08-22 19:10:00,59.0,32.8,29.65,WNW,292,9.8,9.8,37,0.00,,---,0.00,VWS V14.01,2013-08-22 09:10:00,
2013-08-22 19:11:00,59.0,32.8,29.65,NW,315,6.5,9.8,37,0.00,,---,0.00,VWS V14.01,2013-08-22 09:11:00,
2013-08-22 19:12:00,59.0,32.8,29.65,WSW,248,7.6,7.6,37,0.00,,---,0.00,VWS V14.01,2013-08-22 09:12:00,
2013-08-22 19:13:00,59.0,32.8,29.65,WSW,248,7.6,7.6,37,0.00,,---,0.00,VWS V14.01,2013-08-22 09:13:00,
2013-08-22 19:14:00,59.0,32.8,29.65,NW,315,6.0,7.6,37,0.00,,---,0.00,VWS V14.01,2013-08-22 09:14:00,
2013-08-22 19:15:00,59.0,32.8,29.65,NW,315,6.0,6.0,37,0.00,,---,0.00,VWS V14.01,2013-08-22 09:15:00,
2013-08-22 19:16:00,59.0,32.8,29.65,NW,315,6.0,6.0,37,0.00,,---,0.00,VWS V14.01,2013-08-22 09:16:00,
2013-08-22 19:17:00,59.0,32.8,29.65,WNW,292,5.8,6.0,37,0.00,,---,0.00,VWS V14.01,2013-08-22 09:17:00,
2013-08-22 19:18:00,59.0,32.8,29.65,West,270,7.2,7.2,37,0.00,,---,0.00,VWS V14.01,2013-08-22 09:18:00,
2013-08-22 19:19:00,59.0,32.8,29.65,WNW,292,4.9,7.2,37,0.00,,---,0.00,VWS V14.01,2013-08-22 09:19:00,
2013-08-22 19:20:00,59.0,32.8,29.65,WNW,292,10.5,10.5,37,0.00,,---,0.00,VWS V14.01,2013-08-22 09:20:00,
2013-08-22 19:21:00,59.0,32.8,29.65,NW,315,3.8,10.5,37,0.00,,---,0.00,VWS V14.01,2013-08-22 09:21:00,
2013-08-22 19:22:00,59.0,32.8,29.65,NW,315,3.8,3.8,37,0.00,,---,0.00,VWS V14.01,2013-08-22 09:22:00,
2013-08-22 19:23:00,59.0,32.8,29.65,WNW,292,6.5,6.5,37,0.00,,---,0.00,VWS V14.01,2013-08-22 09:23:00,
2013-08-22 19:24:00,59.0,32.8,29.65,WNW,292,6.5,6.5,37,0.00,,---,0.00,VWS V14.01,2013-08-22 09:24:00,
2013-08-22 19:25:00,59.0,32.8,29.65,West,270,7.6,7.6,37,0.00,,---,0.00,VWS V14.01,2013-08-22 09:25:00,
2013-08-22 19:34:00,58.8,33.3,29.68,NW,315,5.6,5.6,38,0.00,,---,0.00,VWS V14.01,2013-08-22 09:34:00,
2013-08-22 19:35:00,59.0,32.8,29.68,West,270,10.3,10.3,37,0.00,,---,0.00,VWS V14.01,2013-08-22 09:35:00,
2013-08-22 19:40:00,58.8,33.3,29.68,NW,315,5.6,5.6,38,0.00,,---,0.00,VWS V14.01,2013-08-22 09:40:00,
2013-08-22 19:45:00,58.8,33.3,29.68,WSW,248,4.3,4.3,38,0.00,,---,0.00,VWS V14.01,2013-08-22 09:45:00,
2013-08-22 19:50:00,58.8,33.3,29.68,WSW,248,4.3,4.3,38,0.00,,---,0.00,VWS V14.01,2013-08-22 09:50:00,
2013-08-22 19:55:00,58.6,33.1,29.68,NW,315,3.4,3.4,38,0.00,,---,0.00,VWS V14.01,2013-08-22 09:55:00,
2013-08-22 20:00:00,58.6,33.1,29.68,WNW,292,5.4,5.4,38,0.00,,---,0.00,VWS V14.01,2013-08-22 10:00:00,
2013-08-22 20:05:00,58.5,33.0,29.68,WNW,292,3.6,3.6,38,0.00,,---,0.00,VWS V14.01,2013-08-22 10:05:00,
2013-08-22 20:10:00,58.5,33.0,29.68,West,270,6.0,6.0,38,0.00,,---,0.00,VWS V14.01,2013-08-22 10:10:00,
2013-08-22 20:15:00,58.5,33.0,29.68,NW,315,4.3,4.3,38,0.00,,---,0.00,VWS V14.01,2013-08-22 10:15:00,
2013-08-22 20:20:00,58.3,33.5,29.68,West,270,5.8,5.8,39,0.00,,---,0.00,VWS V14.01,2013-08-22 10:20:00,
2013-08-22 20:25:00,58.1,33.3,29.68,NW,315,7.8,7.8,39,0.00,,---,0.00,VWS V14.01,2013-08-22 10:25:00,
2013-08-22 20:30:00,58.1,33.3,29.68,West,270,6.9,6.9,39,0.00,,---,0.00,VWS V14.01,2013-08-22 10:30:00,
2013-08-22 20:35:00,57.9,33.1,29.68,NW,315,2.7,2.7,39,0.00,,---,0.00,VWS V14.01,2013-08-22 10:35:00,
2013-08-22 20:40:00,57.9,33.1,29.68,WSW,248,7.6,7.6,39,0.00,,---,0.00,VWS V14.01,2013-08-22 10:40:00,
2013-08-22 20:45:00,57.7,33.0,29.68,WNW,292,6.3,6.3,39,0.00,,---,0.00,VWS V14.01,2013-08-22 10:45:00,
2013-08-22 20:50:00,57.6,32.8,29.68,West,270,5.6,5.6,39,0.00,,---,0.00,VWS V14.01,2013-08-22 10:50:00,
2013-08-22 22:27:00,55.8,33.6,29.68,West,270,2.7,2.7,43,0.00,,---,0.00,VWS V14.01,2013-08-22 12:27:00,
2013-08-22 22:32:00,55.8,33.6,29.68,NW,315,4.3,4.3,43,0.00,,---,0.00,VWS V14.01,2013-08-22 12:32:00,
2013-08-22 22:37:00,55.6,34.0,29.68,NW,315,2.9,2.9,44,0.00,,---,0.00,VWS V14.01,2013-08-22 12:37:00,
2013-08-22 22:42:00,55.4,33.9,29.68,North,0,5.6,5.6,44,0.00,,---,0.00,VWS V14.01,2013-08-22 12:42:00,
2013-08-22 22:47:00,55.4,33.9,29.68,NW,315,3.6,3.6,44,0.00,,---,0.00,VWS V14.01,2013-08-22 12:47:00,
2013-08-22 22:52:00,55.2,34.3,29.68,West,270,8.7,8.7,45,0.00,,---,0.00,VWS V14.01,2013-08-22 12:52:00,
2013-08-22 22:57:00,55.2,34.3,29.68,NW,315,8.7,8.7,45,0.00,,---,0.00,VWS V14.01,2013-08-22 12:57:00,
2013-08-22 23:00:00,55.2,34.3,29.68,NW,315,13.0,13.0,45,0.00,,---,0.00,VWS V14.01,2013-08-22 13:00:00,
2013-08-22 23:05:00,55.2,34.3,29.68,North,0,9.8,9.8,45,0.00,,---,0.00,VWS V14.01,2013-08-22 13:05:00,
2013-08-22 23:10:00,55.2,34.3,29.68,West,270,6.3,7.2,45,0.00,,---,0.00,VWS V14.01,2013-08-22 13:10:00,
2013-08-22 23:15:00,55.2,34.3,29.68,NNW,338,6.5,6.5,45,0.00,,---,0.00,VWS V14.01,2013-08-22 13:15:00,
2013-08-22 23:20:00,55.2,34.3,29.68,NW,315,6.3,6.3,45,0.00,,---,0.00,VWS V14.01,2013-08-22 13:20:00,
2013-08-22 23:25:00,55.2,34.3,29.68,NNW,338,4.9,4.9,45,0.00,,---,0.00,VWS V14.01,2013-08-22 13:25:00,
2013-08-22 23:30:00,55.2,34.3,29.68,NW,315,5.4,5.4,45,0.00,,---,0.00,VWS V14.01,2013-08-22 13:30:00,
2013-08-22 23:35:00,55.0,34.1,29.68,NW,315,6.5,6.5,45,0.00,,---,0.00,VWS V14.01,2013-08-22 13:35:00,
2013-08-22 23:40:00,55.0,34.7,29.68,West,270,8.5,8.5,46,0.00,,---,0.00,VWS V14.01,2013-08-22 13:40:00,
2013-08-22 23:45:00,55.0,34.7,29.65,NW,315,7.2,7.2,46,0.00,,---,0.00,VWS V14.01,2013-08-22 13:45:00,
2013-08-22 23:50:00,55.0,34.7,29.65,West,270,5.8,6.3,46,0.00,,---,0.00,VWS V14.01,2013-08-22 13:50:00,
2013-08-22 23:55:00,54.9,34.5,29.65,NW,315,6.0,6.0,46,0.00,,---,0.00,VWS V14.01,2013-08-22 13:55:00,